Time;durP1;ratioP1;P1;durP2;ratioP2;P2;SDS_P1;SDS_P2;PMS_P1;PMS_P2;Temp;Humidity;BMP_temperature;BMP_pressure;BME280_temperature;BME280_humidity;BME280_pressure;Samples;Min_cycle;Max_cycle;Signal;HPM_P1;HPM_P2
2022/05/20 00:00:37;;;;;;;4.70;3.78;;;;;;;;;;5030722;28;20261;-86
2022/05/20 00:03:05;;;;;;;3.60;3.30;;;;;;;;;;5030412;28;20234;-86
2022/05/20 00:05:32;;;;;;;3.63;3.33;;;;;;;;;;5030176;28;20266;-86
2022/05/20 00:08:00;;;;;;;4.10;3.55;;;;;;;;;;5030431;28;20221;-86
2022/05/20 00:10:28;;;;;;;3.78;3.47;;;;;;;;;;5030731;28;20243;-86
2022/05/20 00:12:56;;;;;;;3.45;3.25;;;;;;;;;;5029854;28;20222;-87
2022/05/20 00:15:25;;;;;;;3.75;3.45;;;;;;;;;;5029724;28;20227;-87
2022/05/20 00:17:54;;;;;;;3.22;3.03;;;;;;;;;;5030407;28;20215;-86
2022/05/20 00:20:22;;;;;;;3.70;3.40;;;;;;;;;;5031280;28;20209;-86
2022/05/20 00:22:50;;;;;;;3.33;3.13;;;;;;;;;;5029733;28;20230;-86
2022/05/20 00:28:04;;;;;;;4.32;3.85;;;;;;;;;;5030514;28;20233;-86
2022/05/20 00:30:31;;;;;;;3.60;3.30;;;;;;;;;;5030521;28;20202;-85
2022/05/20 00:33:00;;;;;;;3.47;3.28;;;;;;;;;;5030295;28;20253;-87
2022/05/20 00:35:27;;;;;;;3.67;3.38;;;;;;;;;;5029301;28;20226;-86
2022/05/20 00:37:55;;;;;;;3.70;3.40;;;;;;;;;;5031016;28;20233;-86
2022/05/20 00:40:24;;;;;;;3.78;3.47;;;;;;;;;;5030224;28;20207;-86
2022/05/20 00:42:52;;;;;;;3.58;3.28;;;;;;;;;;5029801;28;20222;-86
2022/05/20 00:45:20;;;;;;;3.80;3.50;;;;;;;;;;5029718;28;20218;-86
2022/05/20 00:47:47;;;;;;;3.53;3.22;;;;;;;;;;5028865;28;20214;-86
2022/05/20 00:50:18;;;;;;;3.45;3.15;;;;;;;;;;5030558;28;20210;-86
2022/05/20 00:52:49;;;;;;;3.40;3.10;;;;;;;;;;5030286;28;20226;-86
2022/05/20 00:55:18;;;;;;;3.40;3.10;;;;;;;;;;5028464;28;20241;-85
2022/05/20 00:57:47;;;;;;;3.47;3.17;;;;;;;;;;5030295;28;20210;-85
2022/05/20 01:00:17;;;;;;;3.47;3.28;;;;;;;;;;5030669;28;20237;-87
2022/05/20 01:02:46;;;;;;;3.22;3.03;;;;;;;;;;5030480;28;20273;-87
2022/05/20 01:05:17;;;;;;;3.40;3.20;;;;;;;;;;5028481;28;20311;-87
2022/05/20 01:07:46;;;;;;;3.50;3.20;;;;;;;;;;5030315;28;20226;-86
2022/05/20 01:10:13;;;;;;;3.50;3.20;;;;;;;;;;5030146;28;20213;-86
2022/05/20 01:12:41;;;;;;;3.42;3.22;;;;;;;;;;5029613;28;20241;-86
2022/05/20 01:15:09;;;;;;;3.33;3.03;;;;;;;;;;5028807;28;20918;-86
2022/05/20 01:17:39;;;;;;;3.80;3.50;;;;;;;;;;5030404;28;20202;-87
2022/05/20 01:20:08;;;;;;;3.40;3.15;;;;;;;;;;5029578;28;20206;-87
2022/05/20 01:22:38;;;;;;;3.20;3.00;;;;;;;;;;5029473;28;20256;-87
2022/05/20 01:25:06;;;;;;;3.33;3.13;;;;;;;;;;5029862;28;20213;-85
2022/05/20 01:27:36;;;;;;;4.00;3.70;;;;;;;;;;5029585;28;20199;-86
2022/05/20 01:30:03;;;;;;;3.05;2.78;;;;;;;;;;5030299;28;20270;-86
2022/05/20 01:32:30;;;;;;;3.55;3.20;;;;;;;;;;5029542;28;20206;-87
2022/05/20 01:34:58;;;;;;;3.05;2.85;;;;;;;;;;5030750;28;20207;-87
2022/05/20 01:37:25;;;;;;;3.38;3.17;;;;;;;;;;5033541;28;20221;-86
2022/05/20 01:39:54;;;;;;;3.40;3.10;;;;;;;;;;5033545;28;20206;-86
2022/05/20 01:42:25;;;;;;;3.55;3.25;;;;;;;;;;5033045;28;20217;-86
2022/05/20 01:44:54;;;;;;;3.28;3.08;;;;;;;;;;5032749;28;20210;-86
2022/05/20 01:47:25;;;;;;;3.47;3.25;;;;;;;;;;5033800;28;20249;-86
2022/05/20 01:49:56;;;;;;;4.30;3.28;;;;;;;;;;5033177;28;20265;-86
2022/05/20 01:52:27;;;;;;;3.55;3.25;;;;;;;;;;5033793;28;20211;-86
2022/05/20 01:54:59;;;;;;;3.20;3.00;;;;;;;;;;5032832;28;20210;-86
2022/05/20 01:57:31;;;;;;;3.40;3.20;;;;;;;;;;5033040;28;20715;-87
2022/05/20 02:00:03;;;;;;;3.75;2.97;;;;;;;;;;5033073;28;20207;-87
2022/05/20 02:02:32;;;;;;;3.13;2.92;;;;;;;;;;5033768;28;20252;-86
2022/05/20 02:05:05;;;;;;;3.15;2.95;;;;;;;;;;5032320;28;20290;-86
2022/05/20 02:07:36;;;;;;;3.25;3.00;;;;;;;;;;5033058;28;20207;-87
2022/05/20 02:10:07;;;;;;;3.28;3.08;;;;;;;;;;5031526;28;20210;-86
2022/05/20 02:12:41;;;;;;;2.85;2.65;;;;;;;;;;5034383;28;20230;-86
2022/05/20 02:15:12;;;;;;;3.17;2.97;;;;;;;;;;5036217;28;20198;-86
2022/05/20 02:17:39;;;;;;;3.20;3.00;;;;;;;;;;5037410;28;20203;-87
2022/05/20 02:20:09;;;;;;;3.10;2.90;;;;;;;;;;5036024;28;20284;-87
2022/05/20 02:22:39;;;;;;;3.33;3.13;;;;;;;;;;5035271;28;20223;-86
2022/05/20 02:25:09;;;;;;;3.55;3.25;;;;;;;;;;5034892;28;20274;-85
2022/05/20 02:27:39;;;;;;;3.38;3.17;;;;;;;;;;5035415;28;20186;-86
2022/05/20 02:30:09;;;;;;;3.10;2.90;;;;;;;;;;5033625;28;20202;-86
2022/05/20 02:32:41;;;;;;;3.30;3.10;;;;;;;;;;5032054;28;20234;-86
2022/05/20 02:35:08;;;;;;;3.17;2.97;;;;;;;;;;5031424;28;20301;-87
2022/05/20 02:37:38;;;;;;;3.45;3.15;;;;;;;;;;5031327;28;20206;-86
2022/05/20 02:40:07;;;;;;;3.20;3.00;;;;;;;;;;5032550;28;20203;-87
2022/05/20 02:42:36;;;;;;;3.17;2.88;;;;;;;;;;5031535;28;20230;-86
2022/05/20 02:45:07;;;;;;;3.25;2.95;;;;;;;;;;5031586;28;20213;-86
2022/05/20 02:47:35;;;;;;;3.42;3.13;;;;;;;;;;5030577;28;20198;-87
2022/05/20 02:50:02;;;;;;;3.00;2.80;;;;;;;;;;5032242;28;20206;-85
2022/05/20 02:52:30;;;;;;;3.40;3.20;;;;;;;;;;5030886;28;20231;-87
2022/05/20 02:54:57;;;;;;;3.28;3.08;;;;;;;;;;5030907;28;20206;-86
2022/05/20 02:57:24;;;;;;;3.63;3.33;;;;;;;;;;5031590;28;20246;-87
2022/05/20 03:05:23;;;;;;;3.50;3.20;;;;;;;;;;5030689;28;20253;-86
2022/05/20 03:07:50;;;;;;;3.17;2.97;;;;;;;;;;5031251;28;20266;-85
2022/05/20 03:10:18;;;;;;;3.25;2.95;;;;;;;;;;5031018;28;20203;-86
2022/05/20 03:12:45;;;;;;;3.25;2.95;;;;;;;;;;5031067;28;20234;-86
2022/05/20 03:15:14;;;;;;;3.13;2.92;;;;;;;;;;5030334;28;20216;-86
2022/05/20 03:17:45;;;;;;;3.20;3.00;;;;;;;;;;5031292;28;20241;-86
2022/05/20 03:20:13;;;;;;;3.30;3.00;;;;;;;;;;5031079;28;20274;-87
2022/05/20 03:22:40;;;;;;;3.22;3.03;;;;;;;;;;5031302;28;20242;-86
2022/05/20 03:25:08;;;;;;;3.30;3.08;;;;;;;;;;5030518;28;20264;-85
2022/05/20 03:27:38;;;;;;;3.70;3.40;;;;;;;;;;5031001;28;20206;-86
2022/05/20 03:30:06;;;;;;;3.30;3.10;;;;;;;;;;5031180;28;20202;-86
2022/05/20 03:32:35;;;;;;;3.28;3.08;;;;;;;;;;5027932;28;20229;-86
2022/05/20 03:35:02;;;;;;;3.65;3.35;;;;;;;;;;5026623;28;20202;-86
2022/05/20 03:37:30;;;;;;;3.38;3.00;;;;;;;;;;5030373;28;20222;-86
2022/05/20 03:39:57;;;;;;;3.28;2.97;;;;;;;;;;5031712;28;20213;-86
2022/05/20 03:42:28;;;;;;;3.00;2.80;;;;;;;;;;5030975;28;20269;-87
2022/05/20 03:45:03;;;;;;;3.25;3.05;;;;;;;;;;5029748;28;20249;-87
2022/05/20 03:47:30;;;;;;;3.35;3.05;;;;;;;;;;5030625;28;20210;-86
2022/05/20 03:50:00;;;;;;;3.25;2.95;;;;;;;;;;5030435;28;20214;-86
2022/05/20 03:52:27;;;;;;;3.17;2.97;;;;;;;;;;5029704;28;20203;-86
2022/05/20 03:54:55;;;;;;;3.25;3.05;;;;;;;;;;5029833;28;20234;-85
2022/05/20 03:57:22;;;;;;;3.00;2.80;;;;;;;;;;5028635;28;20229;-86
2022/05/20 03:59:49;;;;;;;2.92;2.72;;;;;;;;;;5030586;28;20253;-86
2022/05/20 04:02:18;;;;;;;2.97;2.78;;;;;;;;;;5029549;28;20217;-86
2022/05/20 04:04:47;;;;;;;3.53;3.22;;;;;;;;;;5027746;28;20245;-87
2022/05/20 04:07:17;;;;;;;3.60;3.30;;;;;;;;;;5029797;28;20206;-86
2022/05/20 04:09:49;;;;;;;3.40;3.10;;;;;;;;;;5029679;28;20206;-85
2022/05/20 04:12:21;;;;;;;3.60;3.30;;;;;;;;;;5029560;28;20210;-87
2022/05/20 04:14:48;;;;;;;3.58;3.38;;;;;;;;;;5029760;28;20206;-86
2022/05/20 04:17:17;;;;;;;3.30;3.10;;;;;;;;;;5028526;28;20214;-86
2022/05/20 04:19:45;;;;;;;3.60;3.30;;;;;;;;;;5030374;28;20186;-85
2022/05/20 04:22:13;;;;;;;3.30;3.10;;;;;;;;;;5030201;28;20222;-85
2022/05/20 04:24:41;;;;;;;3.90;3.50;;;;;;;;;;5029296;28;20234;-87
2022/05/20 04:27:09;;;;;;;3.38;3.17;;;;;;;;;;5028805;28;20210;-85
2022/05/20 04:29:38;;;;;;;2.85;2.65;;;;;;;;;;5029344;28;20206;-86
2022/05/20 04:32:06;;;;;;;3.17;2.97;;;;;;;;;;5029199;28;20202;-88
2022/05/20 05:10:59;;;;;;;5.43;4.80;;;;;;;;;;4963824;28;20207;-87
2022/05/20 06:43:11;;;;;;;6.45;4.25;;;;;;;;;;4818823;29;20379;-84
2022/05/20 06:49:07;;;;;;;5.82;3.80;;;;;;;;;;4841884;29;20217;-84
2022/05/20 06:51:49;;;;;;;5.45;3.58;;;;;;;;;;4849791;29;20242;-85
2022/05/20 06:57:33;;;;;;;5.25;3.65;;;;;;;;;;4996783;28;20262;-83
2022/05/20 07:00:03;;;;;;;4.50;3.60;;;;;;;;;;5019833;28;20209;-83
2022/05/20 07:26:05;;;;;;;5.18;3.70;;;;;;;;;;4922903;29;20202;-89
2022/05/20 09:38:11;;;;;;;;;;;;;;;;;;;;;
2022/05/20 09:41:10;;;;;;;;;;;;;;;;;;;;;
2022/05/20 10:06:57;;;;;;;5.63;3.80;;;;;;;;;;5033650;28;20210;-88
2022/05/20 10:09:28;;;;;;;4.47;4.07;;;;;;;;;;5037133;28;20209;-86
2022/05/20 10:11:58;;;;;;;5.18;4.38;;;;;;;;;;5034693;28;20233;-87
2022/05/20 10:14:27;;;;;;;5.22;4.80;;;;;;;;;;5036218;28;20228;-85
2022/05/20 10:16:58;;;;;;;5.97;4.57;;;;;;;;;;5036463;28;20194;-87
2022/05/20 10:19:33;;;;;;;5.95;4.57;;;;;;;;;;5033442;28;20206;-87
2022/05/20 10:22:06;;;;;;;7.22;4.85;;;;;;;;;;5034328;28;20215;-87
2022/05/20 10:24:43;;;;;;;6.38;4.65;;;;;;;;;;5030040;28;20300;-86
2022/05/20 10:27:15;;;;;;;5.88;5.20;;;;;;;;;;5036272;28;20193;-87
2022/05/20 10:33:01;;;;;;;7.00;5.95;;;;;;;;;;5023943;28;20249;-85
2022/05/20 10:38:56;;;;;;;8.52;5.50;;;;;;;;;;5030566;28;20265;-87
2022/05/20 10:41:57;;;;;;;6.47;5.25;;;;;;;;;;5034447;28;20220;-87
2022/05/20 10:50:21;;;;;;;7.50;4.78;;;;;;;;;;5026336;28;20247;-85
2022/05/20 10:52:56;;;;;;;7.43;4.57;;;;;;;;;;5037858;28;20202;-85
2022/05/20 10:55:34;;;;;;;7.60;4.40;;;;;;;;;;5031128;28;20279;-84
2022/05/20 10:58:23;;;;;;;5.50;4.35;;;;;;;;;;5036425;28;20256;-84
2022/05/20 11:00:52;;;;;;;5.22;4.03;;;;;;;;;;5039422;28;20228;-84
2022/05/20 11:04:04;;;;;;;5.88;4.38;;;;;;;;;;5039299;28;20287;-84
2022/05/20 11:06:52;;;;;;;8.18;4.95;;;;;;;;;;4972234;28;20246;-85
2022/05/20 11:15:21;;;;;;;6.07;4.75;;;;;;;;;;5041219;23;20225;-90
2022/05/20 11:18:08;;;;;;;5.70;4.90;;;;;;;;;;5058106;28;20231;-90
2022/05/20 11:20:51;;;;;;;9.55;4.72;;;;;;;;;;5053053;28;20212;-89
2022/05/20 11:23:30;;;;;;;8.48;4.70;;;;;;;;;;5050791;28;20251;-90
2022/05/20 11:26:08;;;;;;;6.85;4.97;;;;;;;;;;5049422;28;20239;-90
2022/05/20 11:28:49;;;;;;;6.15;5.47;;;;;;;;;;5052861;28;20220;-90
2022/05/20 11:31:25;;;;;;;7.40;4.97;;;;;;;;;;5053059;28;20235;-90
2022/05/20 11:34:02;;;;;;;6.32;5.07;;;;;;;;;;5046167;28;20231;-89
2022/05/20 11:36:49;;;;;;;5.57;5.07;;;;;;;;;;5048018;28;20208;-88
2022/05/20 11:39:28;;;;;;;5.22;4.72;;;;;;;;;;5050561;28;20231;-90
2022/05/20 11:42:09;;;;;;;5.55;5.05;;;;;;;;;;5054941;28;20201;-90
2022/05/20 11:45:09;;;;;;;6.38;4.80;;;;;;;;;;5040165;28;20244;-89
2022/05/20 12:00:02;;;;;;;5.50;5.00;;;;;;;;;;5000316;28;20303;-89
2022/05/20 12:12:11;;;;;;;5.00;4.50;;;;;;;;;;4974593;28;20206;-87
2022/05/20 12:14:53;;;;;;;5.97;5.18;;;;;;;;;;5012525;28;20234;-88
2022/05/20 12:29:58;;;;;;;5.72;4.72;;;;;;;;;;4915538;29;20272;-87
2022/05/20 12:32:49;;;;;;;6.90;4.65;;;;;;;;;;4972063;28;20231;-87
2022/05/20 12:41:48;;;;;;;6.95;5.00;;;;;;;;;;4966876;28;20200;-87
2022/05/20 12:47:48;;;;;;;5.82;4.28;;;;;;;;;;4971276;28;20219;-87
2022/05/20 12:50:39;;;;;;;6.13;4.70;;;;;;;;;;4958956;28;20208;-87
2022/05/20 12:53:18;;;;;;;5.38;4.30;;;;;;;;;;4972987;28;20315;-87
2022/05/20 12:55:55;;;;;;;7.13;4.15;;;;;;;;;;4972242;28;20203;-88
2022/05/20 12:58:27;;;;;;;5.80;3.95;;;;;;;;;;4972152;28;20223;-88
2022/05/20 13:01:02;;;;;;;5.80;4.05;;;;;;;;;;4972294;28;20231;-86
2022/05/20 13:03:33;;;;;;;4.90;4.00;;;;;;;;;;4959380;28;20224;-88
2022/05/20 13:06:03;;;;;;;5.25;4.30;;;;;;;;;;5011550;28;20205;-86
2022/05/20 13:08:35;;;;;;;5.97;4.47;;;;;;;;;;5052693;28;20205;-88
2022/05/20 13:11:09;;;;;;;5.65;4.20;;;;;;;;;;5052797;28;20213;-87
2022/05/20 13:14:04;;;;;;;6.18;4.18;;;;;;;;;;5052266;28;20229;-88
2022/05/20 13:16:36;;;;;;;5.30;4.18;;;;;;;;;;5044068;28;20735;-87
2022/05/20 13:19:05;;;;;;;4.28;3.85;;;;;;;;;;5052560;28;20221;-87
2022/05/20 13:21:38;;;;;;;4.93;3.78;;;;;;;;;;5053609;28;20288;-87
2022/05/20 13:24:14;;;;;;;5.15;4.40;;;;;;;;;;5052992;28;20278;-87
2022/05/20 13:26:44;;;;;;;5.10;4.30;;;;;;;;;;5053115;28;20215;-87
2022/05/20 13:29:15;;;;;;;6.32;4.18;;;;;;;;;;5033473;28;20277;-87
2022/05/20 13:31:45;;;;;;;5.10;3.78;;;;;;;;;;5045253;28;20208;-88
2022/05/20 13:34:21;;;;;;;5.63;3.83;;;;;;;;;;5055346;28;20216;-86
2022/05/20 13:36:52;;;;;;;5.05;3.70;;;;;;;;;;5047071;28;20205;-90
2022/05/20 13:39:31;;;;;;;5.70;4.20;;;;;;;;;;5055068;28;20216;-87
2022/05/20 13:42:14;;;;;;;5.18;4.05;;;;;;;;;;5059560;28;20220;-87
2022/05/20 13:44:44;;;;;;;4.65;3.67;;;;;;;;;;5057664;28;20220;-88
2022/05/20 13:50:00;;;;;;;7.13;3.72;;;;;;;;;;5057640;28;20284;-87
2022/05/20 13:52:48;;;;;;;6.00;3.88;;;;;;;;;;5057828;28;20209;-88
2022/05/20 14:01:57;;;;;;;5.88;3.50;;;;;;;;;;4914547;29;20232;-88
2022/05/20 14:16:57;;;;;;;6.13;3.60;;;;;;;;;;4776578;29;20216;-90
2022/05/20 14:20:24;;;;;;;5.50;2.97;;;;;;;;;;4806391;29;20230;-87
2022/05/20 14:28:22;;;;;;;6.82;3.17;;;;;;;;;;4994414;28;20207;-90
2022/05/20 14:36:46;;;;;;;6.18;4.60;;;;;;;;;;4985881;28;20211;-89
2022/05/20 14:39:19;;;;;;;4.90;4.00;;;;;;;;;;4999607;28;20227;-89
2022/05/20 14:41:58;;;;;;;6.03;4.15;;;;;;;;;;4998192;28;20242;-90
2022/05/20 14:44:28;;;;;;;8.07;4.03;;;;;;;;;;4998792;28;20234;-86
2022/05/20 14:47:20;;;;;;;8.18;5.03;;;;;;;;;;4994684;28;20215;-89
2022/05/20 14:50:10;;;;;;;4.85;4.00;;;;;;;;;;4999139;28;20203;-87
2022/05/20 14:58:14;;;;;;;19.52;5.38;;;;;;;;;;5019974;28;20241;-87
2022/05/20 15:01:01;;;;;;;10.13;4.30;;;;;;;;;;5018618;28;20289;-87
2022/05/20 15:07:16;;;;;;;7.88;4.20;;;;;;;;;;4974228;28;20200;-87
2022/05/20 15:12:50;;;;;;;9.20;4.63;;;;;;;;;;5015162;28;20232;-85
2022/05/20 15:15:20;;;;;;;5.20;3.90;;;;;;;;;;5015470;28;20699;-86
2022/05/20 15:17:58;;;;;;;6.07;3.97;;;;;;;;;;5017808;28;20246;-86
2022/05/20 15:20:35;;;;;;;6.10;3.85;;;;;;;;;;5017492;28;20206;-86
2022/05/20 15:55:43;;;;;;;6.80;3.97;;;;;;;;;;5031772;28;20287;-84
2022/05/20 15:58:38;;;;;;;6.80;4.10;;;;;;;;;;5029408;28;20230;-83
2022/05/20 16:04:40;;;;;;;7.72;4.25;;;;;;;;;;4979140;28;20228;-85
2022/05/20 16:07:41;;;;;;;5.90;4.15;;;;;;;;;;5027351;28;20229;-87
2022/05/20 16:13:47;;;;;;;6.70;4.10;;;;;;;;;;4999395;28;20229;-87
2022/05/20 16:19:50;;;;;;;6.03;4.25;;;;;;;;;;5036225;28;20252;-86
2022/05/20 16:22:57;;;;;;;5.85;4.25;;;;;;;;;;5037210;28;20220;-86
2022/05/20 16:25:27;;;;;;;5.90;4.13;;;;;;;;;;5040199;28;20239;-86
2022/05/20 16:28:29;;;;;;;;;;;;;;;;;;;;;
2022/05/20 16:46:32;;;;;;;6.07;3.92;;;;;;;;;;5032477;28;20229;-87
2022/05/20 16:49:01;;;;;;;6.00;3.83;;;;;;;;;;5018981;28;20214;-86
2022/05/20 16:51:52;;;;;;;6.05;4.13;;;;;;;;;;5022069;28;20206;-85
2022/05/20 16:54:35;;;;;;;7.22;3.90;;;;;;;;;;5028714;28;20722;-86
2022/05/20 17:02:55;;;;;;;6.68;3.95;;;;;;;;;;5034575;28;20201;-86
2022/05/20 17:11:26;;;;;;;5.07;3.60;;;;;;;;;;5031413;28;20210;-87
2022/05/20 17:13:54;;;;;;;7.88;4.03;;;;;;;;;;5048009;23;20234;-82
2022/05/20 17:16:22;;;;;;;6.20;3.78;;;;;;;;;;5024171;28;20213;-84
2022/05/20 17:18:51;;;;;;;8.07;3.80;;;;;;;;;;5028812;28;20221;-81
2022/05/20 17:26:46;;;;;;;4.50;3.80;;;;;;;;;;5019571;28;20265;-84
2022/05/20 17:29:14;;;;;;;4.32;3.70;;;;;;;;;;5016679;28;20571;-84
2022/05/20 17:31:41;;;;;;;4.00;3.47;;;;;;;;;;5017487;28;20211;-82
2022/05/20 17:34:12;;;;;;;6.93;3.95;;;;;;;;;;5016591;28;20223;-82
2022/05/20 17:36:40;;;;;;;5.03;3.80;;;;;;;;;;5016712;28;20217;-84
2022/05/20 17:39:07;;;;;;;4.90;3.63;;;;;;;;;;5014016;28;20611;-84
2022/05/20 17:41:40;;;;;;;4.28;3.72;;;;;;;;;;5016477;28;20206;-84
2022/05/20 17:44:08;;;;;;;4.82;4.20;;;;;;;;;;5017604;28;20321;-84
2022/05/20 17:46:36;;;;;;;5.07;3.50;;;;;;;;;;5017221;28;20207;-83
2022/05/20 17:49:04;;;;;;;5.18;4.00;;;;;;;;;;5018025;28;20694;-82
2022/05/20 17:51:33;;;;;;;5.18;4.00;;;;;;;;;;5018934;28;20230;-82
2022/05/20 17:54:01;;;;;;;4.97;3.92;;;;;;;;;;5018313;28;20880;-83
2022/05/20 17:56:33;;;;;;;6.20;3.90;;;;;;;;;;5018533;28;20261;-82
2022/05/20 17:59:01;;;;;;;4.68;3.70;;;;;;;;;;5018877;28;20261;-83
2022/05/20 18:01:28;;;;;;;4.90;3.60;;;;;;;;;;5019775;28;20206;-84
2022/05/20 18:03:57;;;;;;;6.85;4.10;;;;;;;;;;5018724;28;20686;-83
2022/05/20 18:06:25;;;;;;;4.75;3.58;;;;;;;;;;5020085;28;20264;-83
2022/05/20 18:08:54;;;;;;;5.18;4.00;;;;;;;;;;5020277;28;20217;-84
2022/05/20 18:11:23;;;;;;;5.32;3.60;;;;;;;;;;5020568;28;20207;-84
2022/05/20 18:13:52;;;;;;;4.82;3.65;;;;;;;;;;5020075;28;20207;-83
2022/05/20 18:16:21;;;;;;;5.25;3.95;;;;;;;;;;5021169;28;20241;-84
2022/05/20 18:18:49;;;;;;;5.57;3.70;;;;;;;;;;5025712;28;20230;-84
2022/05/20 18:21:17;;;;;;;6.75;3.67;;;;;;;;;;5023602;28;20214;-84
2022/05/20 18:23:44;;;;;;;5.43;3.67;;;;;;;;;;5022093;28;20210;-84
2022/05/20 18:26:14;;;;;;;4.38;3.95;;;;;;;;;;5024063;28;20210;-84
2022/05/20 18:28:43;;;;;;;6.95;4.00;;;;;;;;;;5022969;28;20206;-83
2022/05/20 18:31:11;;;;;;;4.50;3.85;;;;;;;;;;5023570;28;20217;-83
2022/05/20 18:33:38;;;;;;;6.65;3.75;;;;;;;;;;5023015;28;20289;-83
2022/05/20 18:39:18;;;;;;;4.78;3.55;;;;;;;;;;5028060;28;20257;-83
2022/05/20 18:41:49;;;;;;;5.05;3.90;;;;;;;;;;5027281;28;20211;-83
2022/05/20 18:44:17;;;;;;;5.05;3.55;;;;;;;;;;5017973;28;20309;-83
2022/05/20 18:46:44;;;;;;;7.05;3.90;;;;;;;;;;5019848;28;20202;-83
2022/05/20 18:49:15;;;;;;;5.90;3.78;;;;;;;;;;5019186;28;20205;-83
2022/05/20 18:51:53;;;;;;;4.38;3.80;;;;;;;;;;5018466;28;20206;-84
2022/05/20 18:54:20;;;;;;;6.10;3.90;;;;;;;;;;5017225;28;20233;-83
2022/05/20 18:56:49;;;;;;;5.68;4.00;;;;;;;;;;5017762;28;20211;-83
2022/05/20 18:59:28;;;;;;;5.85;3.42;;;;;;;;;;5017658;28;20227;-84
2022/05/20 19:02:01;;;;;;;6.53;3.38;;;;;;;;;;5017604;28;20212;-83
2022/05/20 19:04:30;;;;;;;5.00;3.38;;;;;;;;;;5016298;28;20230;-84
2022/05/20 19:07:01;;;;;;;5.43;3.38;;;;;;;;;;5017303;28;20215;-83
2022/05/20 19:09:29;;;;;;;6.93;3.60;;;;;;;;;;5011390;28;20257;-83
2022/05/20 19:12:00;;;;;;;5.78;3.47;;;;;;;;;;5017459;28;20217;-83
2022/05/20 19:14:30;;;;;;;7.43;3.22;;;;;;;;;;5017877;28;20238;-83
2022/05/20 19:16:57;;;;;;;7.90;3.47;;;;;;;;;;5020459;28;20210;-84
2022/05/20 19:19:26;;;;;;;7.05;3.58;;;;;;;;;;5023511;28;20230;-84
2022/05/20 19:21:56;;;;;;;9.57;3.60;;;;;;;;;;5024200;28;20266;-84
2022/05/20 19:24:23;;;;;;;7.57;3.55;;;;;;;;;;5022995;28;20235;-84
2022/05/20 19:26:51;;;;;;;7.88;3.40;;;;;;;;;;5023287;28;20210;-83
2022/05/20 19:29:20;;;;;;;6.30;3.42;;;;;;;;;;5023732;28;20268;-84
2022/05/20 19:31:47;;;;;;;5.80;3.22;;;;;;;;;;5023729;28;20210;-83
2022/05/20 19:34:18;;;;;;;8.98;3.60;;;;;;;;;;5019433;28;20234;-84
2022/05/20 19:36:45;;;;;;;7.63;3.50;;;;;;;;;;5017870;28;20242;-83
2022/05/20 19:39:17;;;;;;;10.35;3.83;;;;;;;;;;5018383;28;20281;-83
2022/05/20 19:41:47;;;;;;;10.32;3.90;;;;;;;;;;5021315;28;20211;-83
2022/05/20 19:44:21;;;;;;;7.50;4.10;;;;;;;;;;5020946;28;20234;-83
2022/05/20 19:46:53;;;;;;;8.68;3.83;;;;;;;;;;5021245;28;20210;-83
2022/05/20 19:49:23;;;;;;;9.48;4.28;;;;;;;;;;5020533;28;20215;-83
2022/05/20 19:51:51;;;;;;;8.20;4.15;;;;;;;;;;5022249;28;20245;-83
2022/05/20 19:54:27;;;;;;;5.78;3.78;;;;;;;;;;5023300;28;20222;-82
2022/05/20 20:00:39;;;;;;;6.78;3.35;;;;;;;;;;5023344;28;20217;-82
2022/05/20 20:02:45;;;;;;;5.35;3.58;;;;;;;;;;5017417;28;20233;-84
2022/05/20 20:05:22;;;;;;;6.30;3.42;;;;;;;;;;5018381;28;20222;-83
2022/05/20 20:07:50;;;;;;;4.18;2.90;;;;;;;;;;5020833;28;20210;-84
2022/05/20 20:10:18;;;;;;;5.85;3.60;;;;;;;;;;5016546;28;20198;-83
2022/05/20 20:13:15;;;;;;;5.15;2.97;;;;;;;;;;5023930;28;20218;-88
2022/05/20 20:29:17;;;;;;;5.25;3.30;;;;;;;;;;5057412;28;20223;-84
2022/05/20 20:31:50;;;;;;;5.82;3.25;;;;;;;;;;5062570;28;20201;-84
2022/05/20 20:34:22;;;;;;;5.15;3.58;;;;;;;;;;5054080;28;20229;-84
